Terminal Aerodrome Forecast
Issued by NWS Quad Cities IA IL

Home | Current Version | Previous Version | Text Only | Print | Product List | Glossary On
Versions: 1 2 3 4 5 6 7 8 9 10 11 12 13 14 15 16 17 18
721
FTUS43 KDVN 111720
TAFDBQ
TAF
KDBQ 111720Z 1118/1218 16005KT P6SM SCT200
     FM112200 22005KT P6SM BKN120
     FM120400 25009KT 6SM -SHSN BR OVC025
     FM121100 31015KT P6SM SCT025 OVC100=

USA.gov is the U.S. government's official web portal to all federal, state and local government web resources and services.